Time;durP1;ratioP1;P1;durP2;ratioP2;P2;SDS_P1;SDS_P2;PMS_P1;PMS_P2;Temp;Humidity;BMP_temperature;BMP_pressure;BME280_temperature;BME280_humidity;BME280_pressure;Samples;Min_cycle;Max_cycle;Signal;HPM_P1;HPM_P2
2023/05/28 00:00:57;;;;;;;11.53;5.30;;;17.70;71.30;;;20.43;48.97;102103.63;5053644;28;20700;-66
2023/05/28 00:03:43;;;;;;;11.53;5.53;;;17.70;70.90;;;20.37;48.64;102109.81;5053914;28;20197;-66
2023/05/28 00:06:30;;;;;;;14.63;5.97;;;17.60;70.90;;;20.30;48.52;102108.16;5054124;28;20217;-70
2023/05/28 00:09:16;;;;;;;9.70;5.13;;;17.50;71.10;;;20.18;48.74;102108.72;5054512;28;20232;-66
2023/05/28 00:11:43;;;;;;;13.40;5.77;;;17.50;71.20;;;20.11;49.12;102102.53;5054119;28;20214;-65
2023/05/28 00:14:10;;;;;;;11.57;5.07;;;17.40;71.50;;;20.03;49.12;102110.78;5053363;28;20283;-65
2023/05/28 00:16:37;;;;;;;11.27;5.60;;;17.30;71.50;;;19.96;48.96;102112.63;5052582;28;20210;-64
2023/05/28 00:19:04;;;;;;;12.77;5.73;;;17.30;71.90;;;19.92;49.69;102108.66;5050705;28;20215;-64
2023/05/28 00:21:34;;;;;;;10.77;5.57;;;17.20;72.10;;;19.91;49.90;102115.06;5034521;28;20217;-65
2023/05/28 00:24:01;;;;;;;12.67;6.20;;;17.20;72.50;;;19.91;50.07;102116.91;5032330;28;20636;-65
2023/05/28 00:26:28;;;;;;;9.57;5.87;;;17.20;72.50;;;19.90;50.04;102116.06;5033827;28;20195;-65
2023/05/28 00:28:55;;;;;;;10.63;5.37;;;17.20;72.90;;;19.90;49.97;102115.25;5034144;28;20222;-65
2023/05/28 00:31:22;;;;;;;10.00;5.70;;;17.10;73.00;;;19.89;50.05;102106.44;5034087;28;20214;-66
2023/05/28 00:33:49;;;;;;;12.63;6.20;;;17.10;72.90;;;19.89;49.96;102101.09;5045092;28;20247;-64
2023/05/28 00:36:16;;;;;;;10.23;5.27;;;17.10;72.80;;;19.89;50.06;102106.44;5053928;28;20234;-65
2023/05/28 00:38:44;;;;;;;10.97;5.17;;;17.10;72.90;;;19.88;50.32;102109.28;5054119;28;20194;-66
2023/05/28 00:41:11;;;;;;;11.63;5.37;;;17.20;72.90;;;19.88;50.37;102095.91;5053721;28;20194;-64
2023/05/28 00:43:38;;;;;;;14.67;6.60;;;17.10;72.80;;;19.88;49.68;102103.94;5053701;28;20697;-65
2023/05/28 00:46:06;;;;;;;13.57;5.77;;;17.10;72.50;;;19.85;49.65;102105.16;5053886;28;20216;-66
2023/05/28 00:48:33;;;;;;;10.73;5.77;;;17.10;72.60;;;19.79;50.10;102100.63;5054010;28;20594;-65
2023/05/28 00:51:01;;;;;;;9.47;5.17;;;17.00;72.80;;;19.76;50.37;102095.69;5052125;28;20237;-65
2023/05/28 00:53:28;;;;;;;13.23;5.60;;;17.00;73.10;;;19.75;50.23;102096.72;5053574;28;20217;-65
2023/05/28 00:55:57;;;;;;;9.97;5.33;;;17.00;73.30;;;19.75;50.62;102090.56;5053670;28;20249;-65
2023/05/28 00:58:26;;;;;;;11.70;5.60;;;17.00;73.30;;;19.76;50.54;102093.00;5053094;28;20599;-64
2023/05/28 01:00:54;;;;;;;9.87;5.70;;;17.00;73.30;;;19.76;50.23;102090.34;5053761;28;20213;-65
2023/05/28 01:03:22;;;;;;;9.93;5.73;;;17.00;73.20;;;19.74;50.15;102086.22;5052756;28;20201;-64
2023/05/28 01:05:49;;;;;;;7.93;5.40;;;17.00;73.10;;;19.68;50.33;102082.53;5053780;28;20548;-64
2023/05/28 01:08:16;;;;;;;10.83;6.57;;;17.00;73.10;;;19.66;50.36;102075.75;5053300;28;20209;-64
2023/05/28 01:10:44;;;;;;;15.80;6.40;;;17.00;73.40;;;19.65;50.51;102087.44;5053892;28;20217;-64
2023/05/28 01:13:13;;;;;;;11.77;6.03;;;16.90;73.10;;;19.62;50.14;102085.16;5053230;28;20186;-64
2023/05/28 01:15:40;;;;;;;9.87;6.20;;;16.90;73.40;;;19.56;50.67;102084.13;5052144;28;20613;-66
2023/05/28 01:18:08;;;;;;;9.07;4.80;;;16.80;73.50;;;19.54;50.86;102086.16;5032403;28;20505;-65
2023/05/28 01:20:35;;;;;;;12.27;6.30;;;16.80;73.90;;;19.53;50.76;102085.34;5050130;28;20197;-65
2023/05/28 01:23:10;;;;;;;11.93;5.93;;;16.70;74.00;;;19.54;50.71;102083.47;5053059;28;20185;-65
2023/05/28 01:25:39;;;;;;;14.57;6.87;;;16.80;74.00;;;19.52;50.88;102083.69;5053405;28;20220;-66
2023/05/28 01:28:12;;;;;;;13.43;6.07;;;16.80;74.00;;;19.51;50.89;102086.56;5052085;28;20224;-65
2023/05/28 01:30:39;;;;;;;9.97;6.30;;;16.70;73.80;;;19.48;50.71;102087.78;5033746;28;20214;-65
2023/05/28 01:33:07;;;;;;;14.17;7.20;;;16.70;73.90;;;19.46;51.12;102089.00;5032931;28;20224;-64
2023/05/28 01:35:34;;;;;;;12.13;6.07;;;16.70;74.10;;;19.44;51.04;102085.72;5033273;28;20217;-66
2023/05/28 01:38:03;;;;;;;12.10;5.73;;;16.70;74.20;;;19.44;50.97;102086.56;5041065;28;20217;-65
2023/05/28 01:40:33;;;;;;;12.47;6.30;;;16.70;74.10;;;19.44;51.07;102085.72;5053073;28;20255;-65
2023/05/28 01:43:03;;;;;;;7.93;5.03;;;16.70;74.20;;;19.45;50.78;102080.16;5046136;28;20217;-65
2023/05/28 01:45:31;;;;;;;10.87;5.97;;;16.70;74.20;;;19.47;51.01;102083.47;5033186;28;20293;-65
2023/05/28 01:47:58;;;;;;;13.30;6.97;;;16.70;73.90;;;19.46;50.84;102086.34;5032285;28;20659;-67
2023/05/28 01:50:25;;;;;;;13.83;6.43;;;16.70;73.70;;;19.41;50.46;102091.47;5033437;28;20223;-65
2023/05/28 01:52:53;;;;;;;10.67;6.10;;;16.70;73.40;;;19.30;50.49;102084.78;5032771;28;20667;-67
2023/05/28 01:55:20;;;;;;;13.90;6.83;;;16.60;73.40;;;19.23;50.37;102088.47;5033346;28;20217;-66
2023/05/28 01:57:48;;;;;;;12.93;5.73;;;16.50;73.50;;;19.14;50.85;102081.63;5033424;28;20678;-65
2023/05/28 02:00:17;;;;;;;12.53;6.47;;;16.40;73.90;;;19.08;50.91;102072.59;5047117;28;20221;-67
2023/05/28 02:02:45;;;;;;;11.83;6.70;;;16.40;74.20;;;19.02;50.94;102080.56;5052553;28;20281;-66
2023/05/28 02:05:12;;;;;;;11.43;5.90;;;16.30;74.20;;;18.94;50.77;102076.19;5052145;28;20222;-64
2023/05/28 02:07:39;;;;;;;10.53;5.83;;;16.20;74.30;;;18.86;50.89;102071.84;5052502;28;20662;-66
2023/05/28 02:10:07;;;;;;;11.27;6.03;;;16.10;74.20;;;18.78;50.97;102061.31;5056100;28;20559;-65
2023/05/28 02:12:34;;;;;;;8.20;5.20;;;16.00;74.60;;;18.73;51.22;102071.75;5056138;28;20209;-66
2023/05/28 02:15:01;;;;;;;11.73;6.93;;;16.00;74.80;;;18.70;51.96;102069.47;5047247;28;20207;-70
2023/05/28 02:17:30;;;;;;;8.47;5.40;;;16.00;75.60;;;18.73;52.14;102068.28;5056730;28;20212;-65
2023/05/28 02:19:58;;;;;;;10.13;6.40;;;16.00;75.90;;;18.74;52.12;102075.25;5056175;28;20194;-66
2023/05/28 02:22:25;;;;;;;10.27;5.37;;;16.00;75.90;;;18.78;52.14;102076.47;5056655;28;20182;-66
2023/05/28 02:24:52;;;;;;;10.33;5.70;;;16.00;75.90;;;18.81;52.18;102074.28;5056147;28;20232;-65
2023/05/28 02:27:19;;;;;;;12.53;6.40;;;16.00;75.80;;;18.85;52.21;102070.19;5056774;28;20225;-64
2023/05/28 02:29:47;;;;;;;10.17;6.03;;;16.00;75.80;;;18.84;52.16;102068.53;5056119;28;20196;-65
2023/05/28 02:32:14;;;;;;;13.20;7.03;;;16.10;75.90;;;18.85;52.11;102067.50;5048653;28;20225;-65
2023/05/28 02:34:42;;;;;;;11.37;6.27;;;16.10;75.70;;;18.88;52.22;102063.63;5047901;28;20232;-66
2023/05/28 02:37:09;;;;;;;11.90;6.90;;;16.10;75.70;;;18.89;51.98;102067.97;5057705;28;20217;-66
2023/05/28 02:39:36;;;;;;;13.33;6.63;;;16.20;75.50;;;18.89;51.96;102066.13;5056145;28;20197;-65
2023/05/28 02:42:03;;;;;;;11.50;5.60;;;16.20;75.30;;;18.91;51.93;102074.75;5056169;28;20196;-67
2023/05/28 02:44:30;;;;;;;10.77;5.80;;;16.20;75.20;;;18.94;52.07;102070.88;5055649;28;20288;-67
2023/05/28 02:46:57;;;;;;;9.47;5.77;;;16.20;75.20;;;18.94;51.84;102069.00;5056198;28;20244;-66
2023/05/28 02:49:25;;;;;;;10.50;6.13;;;16.20;75.20;;;18.94;51.79;102068.19;5043421;28;20290;-66
2023/05/28 02:51:53;;;;;;;9.83;6.03;;;16.20;75.20;;;18.96;51.69;102066.16;5036267;28;20232;-66
2023/05/28 02:54:20;;;;;;;10.97;5.70;;;16.20;75.20;;;18.98;51.43;102072.13;5035853;28;20210;-64
2023/05/28 02:56:47;;;;;;;8.73;6.33;;;16.20;74.70;;;18.95;51.19;102080.50;5040071;28;20206;-65
2023/05/28 02:59:14;;;;;;;8.67;5.43;;;16.10;75.30;;;18.88;50.96;102085.81;5056209;28;20198;-64
2023/05/28 03:01:41;;;;;;;8.60;5.93;;;16.10;74.40;;;18.77;50.85;102083.69;5056276;28;20190;-65
2023/05/28 03:04:08;;;;;;;9.53;5.87;;;16.00;74.30;;;18.69;51.16;102085.66;5055210;28;20202;-65
2023/05/28 03:06:36;;;;;;;12.93;6.70;;;16.00;74.50;;;18.59;51.28;102079.88;5055052;28;20198;-66
2023/05/28 03:09:04;;;;;;;11.37;6.30;;;15.90;74.70;;;18.49;51.15;102085.53;5055665;28;20194;-66
2023/05/28 03:11:31;;;;;;;13.20;6.30;;;15.70;74.50;;;18.40;51.64;102075.97;5055966;28;20730;-64
2023/05/28 03:13:58;;;;;;;9.63;5.93;;;15.70;74.80;;;18.35;51.74;102078.38;5054846;28;20190;-64
2023/05/28 03:16:25;;;;;;;10.27;5.60;;;15.60;76.10;;;18.32;52.02;102070.78;5055362;28;20731;-64
2023/05/28 03:18:52;;;;;;;11.13;6.30;;;15.50;75.70;;;18.34;52.36;102071.41;5055662;28;20186;-66
2023/05/28 03:21:19;;;;;;;8.17;5.97;;;15.60;76.30;;;18.34;52.81;102075.94;5035654;28;20265;-67
2023/05/28 03:23:46;;;;;;;9.50;5.80;;;15.60;76.70;;;18.37;52.73;102075.53;5034884;28;20561;-65
2023/05/28 03:26:15;;;;;;;11.70;5.77;;;15.60;76.60;;;18.42;52.70;102073.13;5035529;28;20289;-65
2023/05/28 03:28:42;;;;;;;10.80;6.07;;;15.60;76.30;;;18.46;52.56;102074.41;5035597;28;20199;-65
2023/05/28 03:31:09;;;;;;;12.80;5.93;;;15.70;76.30;;;18.48;52.43;102067.88;5048675;28;20297;-64
2023/05/28 03:33:36;;;;;;;8.87;6.03;;;15.70;76.10;;;18.51;52.38;102067.50;5054555;28;20874;-65
2023/05/28 03:36:03;;;;;;;9.37;5.37;;;15.70;75.90;;;18.54;51.75;102066.28;5053830;28;20264;-65
2023/05/28 03:38:30;;;;;;;11.33;5.40;;;15.70;75.50;;;18.52;52.10;102069.13;5055078;28;20543;-65
2023/05/28 03:40:57;;;;;;;8.63;5.87;;;15.70;75.80;;;18.54;52.13;102069.75;5055358;28;20209;-65
2023/05/28 03:43:26;;;;;;;12.23;6.20;;;15.70;75.70;;;18.56;51.80;102059.75;5054290;28;20216;-65
2023/05/28 03:45:53;;;;;;;8.83;5.53;;;15.80;75.40;;;18.53;51.96;102062.78;5054787;28;20345;-65
2023/05/28 03:48:20;;;;;;;10.87;6.10;;;15.70;75.60;;;18.55;51.99;102063.41;5054429;28;20706;-65
2023/05/28 03:50:47;;;;;;;14.13;6.17;;;15.70;75.70;;;18.56;52.08;102058.91;5054803;28;20186;-65
2023/05/28 03:53:14;;;;;;;9.33;6.30;;;15.80;75.70;;;18.59;51.96;102058.53;5054637;28;20584;-65
2023/05/28 03:55:41;;;;;;;11.10;6.03;;;15.80;75.40;;;18.59;51.70;102069.19;5054672;28;20240;-65
2023/05/28 03:58:09;;;;;;;11.20;6.07;;;15.70;75.40;;;18.57;51.57;102065.88;5054865;28;20233;-65
2023/05/28 04:00:37;;;;;;;8.87;5.53;;;15.70;75.40;;;18.57;51.93;102065.88;5054710;28;20225;-65
2023/05/28 04:03:04;;;;;;;11.10;5.90;;;15.70;75.80;;;18.58;51.90;102056.88;5053721;28;20198;-63
2023/05/28 04:05:33;;;;;;;10.97;5.80;;;15.70;75.70;;;18.61;51.89;102065.28;5054193;28;20214;-65
2023/05/28 04:08:01;;;;;;;8.53;5.43;;;15.80;75.50;;;18.62;51.67;102066.94;5054340;28;20216;-65
2023/05/28 04:10:28;;;;;;;8.77;5.73;;;15.80;75.60;;;18.64;51.78;102058.75;5054293;28;20646;-64
2023/05/28 04:12:56;;;;;;;10.07;5.97;;;15.80;75.50;;;18.67;51.77;102061.88;5054039;28;20214;-64
2023/05/28 04:15:23;;;;;;;8.77;5.70;;;15.80;75.30;;;18.69;51.49;102059.00;5054044;28;20649;-66
2023/05/28 04:17:51;;;;;;;11.43;5.67;;;15.80;76.00;;;18.68;51.24;102063.53;5040139;28;20204;-66
2023/05/28 04:20:18;;;;;;;9.07;5.10;;;15.80;74.90;;;18.65;51.48;102063.91;5048479;28;20220;-65
2023/05/28 04:22:46;;;;;;;7.73;5.60;;;15.80;75.20;;;18.66;51.44;102062.88;5054263;28;20185;-65
2023/05/28 04:25:13;;;;;;;7.27;5.30;;;15.80;75.20;;;18.67;51.66;102066.38;5053847;28;20216;-63
2023/05/28 04:27:40;;;;;;;8.83;5.73;;;15.80;75.30;;;18.70;51.47;102080.16;5044078;28;20604;-65
2023/05/28 04:30:09;;;;;;;9.37;5.80;;;15.80;75.10;;;18.70;51.22;102072.16;5033928;28;20201;-66
2023/05/28 04:32:39;;;;;;;8.47;5.87;;;15.80;74.90;;;18.69;51.34;102070.50;5051916;28;20234;-65
2023/05/28 04:35:08;;;;;;;10.20;5.83;;;15.80;75.00;;;18.66;51.30;102060.19;5053579;28;20573;-67
2023/05/28 04:37:36;;;;;;;12.60;6.17;;;15.80;75.10;;;18.66;51.52;102067.41;5054043;28;20650;-65
2023/05/28 04:40:05;;;;;;;8.30;5.70;;;15.80;75.40;;;18.66;51.74;102065.53;5053719;28;20186;-66
2023/05/28 04:42:32;;;;;;;10.13;7.03;;;15.80;75.40;;;18.69;51.47;102067.81;5054292;28;20239;-65
2023/05/28 04:44:59;;;;;;;10.23;5.83;;;15.80;75.30;;;18.69;51.22;102075.00;5050237;28;20216;-68
2023/05/28 04:47:27;;;;;;;10.27;6.90;;;15.80;75.10;;;18.65;51.28;102074.56;5033729;28;20222;-66
2023/05/28 04:49:57;;;;;;;12.20;7.10;;;15.80;75.10;;;18.59;51.06;102070.00;5033991;28;20198;-66
2023/05/28 04:52:25;;;;;;;10.70;6.93;;;15.70;75.10;;;18.53;51.37;102068.13;5033858;28;20238;-67
2023/05/28 04:54:52;;;;;;;10.67;6.70;;;15.60;75.30;;;18.47;51.47;102081.41;5033004;28;20615;-67
2023/05/28 04:57:19;;;;;;;9.07;6.53;;;15.60;75.60;;;18.40;51.77;102085.84;5033950;28;20727;-66
2023/05/28 04:59:46;;;;;;;11.43;6.53;;;15.50;75.70;;;18.36;51.71;102080.06;5041293;28;20619;-65
2023/05/28 05:02:16;;;;;;;13.13;7.27;;;15.50;76.20;;;18.37;52.22;102079.03;5052580;28;20210;-67
2023/05/28 05:04:43;;;;;;;13.03;6.73;;;15.50;76.70;;;18.41;52.35;102074.97;5053631;28;20220;-66
2023/05/28 05:07:11;;;;;;;8.37;6.60;;;15.50;77.00;;;18.47;52.46;102074.22;5053437;28;20194;-66
2023/05/28 05:09:39;;;;;;;8.63;5.97;;;15.50;77.20;;;18.57;52.53;102066.72;5053907;28;20662;-66
2023/05/28 05:12:08;;;;;;;8.70;6.07;;;15.60;77.30;;;18.68;52.24;102063.53;5053379;28;20220;-65
2023/05/28 05:14:35;;;;;;;9.37;6.30;;;15.70;77.30;;;18.81;52.16;102062.75;5051936;28;20241;-66
2023/05/28 05:17:03;;;;;;;10.40;5.63;;;15.80;77.10;;;18.95;51.89;102075.16;5052904;28;20562;-66
2023/05/28 05:19:30;;;;;;;8.90;5.93;;;15.90;76.80;;;19.09;51.66;102076.09;5053482;28;20194;-66
2023/05/28 05:21:57;;;;;;;10.33;6.73;;;16.00;76.60;;;19.23;51.64;102080.47;5053589;28;20625;-66
2023/05/28 05:24:24;;;;;;;11.63;5.80;;;16.10;76.10;;;19.33;51.19;102088.91;5052848;28;20300;-66
2023/05/28 05:26:52;;;;;;;9.07;5.30;;;16.30;75.90;;;19.42;50.71;102088.56;5053684;28;20554;-67
2023/05/28 05:29:19;;;;;;;11.40;6.00;;;16.30;75.60;;;19.51;50.67;102081.22;5036266;28;20210;-66
2023/05/28 05:31:46;;;;;;;10.60;5.80;;;16.40;75.50;;;19.58;50.52;102071.38;5033280;28;20215;-66
2023/05/28 05:34:13;;;;;;;8.10;6.17;;;16.40;75.30;;;19.64;50.55;102083.94;5033128;28;20246;-66
2023/05/28 05:36:40;;;;;;;7.53;5.63;;;16.50;75.10;;;19.69;50.17;102076.13;5032779;28;20201;-65
2023/05/28 05:39:08;;;;;;;12.97;6.53;;;16.60;74.90;;;19.77;49.97;102075.97;5034131;28;20214;-67
2023/05/28 05:41:35;;;;;;;9.17;5.87;;;16.70;74.80;;;19.87;49.91;102070.22;5034118;28;20385;-65
2023/05/28 05:44:03;;;;;;;9.43;6.13;;;16.70;74.60;;;19.94;49.83;102071.91;5053730;28;20194;-68
2023/05/28 05:46:30;;;;;;;12.60;5.90;;;16.80;74.60;;;20.02;49.73;102074.38;5057051;28;20224;-68
2023/05/28 05:48:57;;;;;;;9.03;6.40;;;16.80;74.30;;;20.11;49.32;102075.81;5057519;28;20219;-65
2023/05/28 05:51:24;;;;;;;10.37;6.93;;;16.90;74.10;;;20.18;49.11;102079.31;5057263;28;20194;-66
2023/05/28 05:53:51;;;;;;;10.60;7.00;;;17.00;74.10;;;20.19;49.14;102080.97;5056748;28;20570;-67
2023/05/28 05:56:18;;;;;;;8.77;6.03;;;17.00;73.90;;;20.16;48.94;102081.38;5053789;28;20270;-66
2023/05/28 05:58:45;;;;;;;10.07;7.23;;;17.00;73.80;;;20.14;48.98;102083.44;5036680;28;20566;-65
2023/05/28 06:01:17;;;;;;;8.33;5.73;;;17.00;73.70;;;20.14;49.40;102078.06;5042836;28;20186;-66
2023/05/28 06:03:44;;;;;;;10.17;6.27;;;17.00;73.80;;;20.18;49.07;102081.19;5056299;28;20654;-67
2023/05/28 06:06:11;;;;;;;7.77;5.30;;;17.00;73.60;;;20.21;49.21;102084.25;5056703;28;20245;-67
2023/05/28 06:08:39;;;;;;;9.53;6.07;;;17.10;73.60;;;20.23;49.21;102082.22;5055574;28;20228;-66
2023/05/28 06:11:07;;;;;;;9.90;6.20;;;17.10;73.50;;;20.28;49.19;102078.94;5056112;28;20190;-65
2023/05/28 06:13:35;;;;;;;11.13;6.73;;;17.10;73.40;;;20.36;48.79;102075.25;5056205;28;20682;-66
2023/05/28 06:16:03;;;;;;;8.57;5.93;;;17.20;73.30;;;20.42;48.60;102083.25;5055319;28;20225;-65
2023/05/28 06:18:32;;;;;;;7.13;5.57;;;17.20;73.40;;;20.48;48.70;102092.31;5056215;28;20194;-66
2023/05/28 06:20:59;;;;;;;8.90;6.73;;;17.30;73.40;;;20.53;48.62;102089.84;5039137;28;20396;-65
2023/05/28 06:23:26;;;;;;;10.83;6.77;;;17.30;73.40;;;20.59;48.61;102097.03;5035892;28;20187;-66
2023/05/28 06:25:53;;;;;;;9.90;7.10;;;17.40;73.40;;;20.62;48.74;102096.63;5036640;28;20226;-66
2023/05/28 06:28:20;;;;;;;10.73;6.10;;;17.40;73.00;;;20.64;48.40;102100.75;5036333;28;20277;-66
2023/05/28 06:30:47;;;;;;;8.00;6.33;;;17.40;72.80;;;20.69;48.17;102108.16;5036053;28;20582;-64
2023/05/28 06:33:14;;;;;;;10.90;6.67;;;17.50;72.90;;;20.77;48.02;102100.75;5035693;28;20222;-65
2023/05/28 06:35:43;;;;;;;12.07;7.67;;;17.50;73.00;;;20.83;48.28;102096.41;5035863;28;20215;-65
2023/05/28 06:38:10;;;;;;;11.57;8.43;;;17.60;73.50;;;20.87;48.31;102098.44;5036263;28;20190;-66
2023/05/28 06:40:36;;;;;;;13.43;8.83;;;17.60;73.60;;;20.90;48.75;102102.56;5051877;28;20190;-65
2023/05/28 06:43:03;;;;;;;19.17;9.83;;;17.70;73.50;;;20.91;48.59;102099.69;5055306;28;20277;-66
2023/05/28 06:45:32;;;;;;;16.27;9.07;;;17.70;73.50;;;20.91;48.60;102096.19;5055589;28;20296;-66
2023/05/28 06:47:59;;;;;;;12.40;8.17;;;17.70;73.30;;;20.92;48.74;102103.16;5055605;28;20190;-65
2023/05/28 06:50:26;;;;;;;11.93;7.57;;;17.70;73.30;;;20.91;48.70;102102.38;5056582;28;20221;-65
2023/05/28 06:52:56;;;;;;;11.00;7.07;;;17.80;73.30;;;20.93;48.72;102110.19;5055730;28;20586;-66
2023/05/28 06:55:22;;;;;;;11.97;10.47;;;17.80;73.40;;;20.94;48.51;102106.50;5054524;28;20218;-65
2023/05/28 06:57:50;;;;;;;13.27;9.73;;;17.80;73.40;;;20.97;48.45;102108.72;5055778;28;20286;-65
2023/05/28 07:00:17;;;;;;;15.90;9.90;;;17.80;73.40;;;21.01;48.42;102118.00;5055440;28;20197;-65
2023/05/28 07:02:45;;;;;;;13.07;8.40;;;17.90;73.40;;;21.07;48.66;102117.19;5055409;28;20276;-65
2023/05/28 07:05:12;;;;;;;8.07;6.43;;;17.80;73.00;;;21.15;48.35;102125.00;5055887;28;20264;-63
2023/05/28 07:07:39;;;;;;;14.27;8.13;;;18.00;73.10;;;21.25;48.09;102125.38;5055387;28;20201;-65
2023/05/28 07:10:09;;;;;;;10.93;7.07;;;18.00;73.00;;;21.41;48.33;102124.09;5056255;28;20276;-66
2023/05/28 07:12:38;;;;;;;14.37;8.07;;;18.10;73.20;;;21.59;48.06;102127.72;5055406;28;20213;-65
2023/05/28 07:15:07;;;;;;;11.73;7.07;;;18.30;73.00;;;21.72;47.85;102126.03;5054184;28;20253;-64
2023/05/28 07:17:34;;;;;;;14.10;6.53;;;18.30;72.60;;;21.80;47.42;102128.47;5036089;28;20281;-65
2023/05/28 07:20:01;;;;;;;11.27;6.67;;;18.40;72.20;;;21.88;47.20;102130.91;5049807;28;20198;-65
2023/05/28 07:22:29;;;;;;;10.20;7.70;;;18.50;72.10;;;21.98;47.08;102142.00;5055459;28;20190;-65
2023/05/28 07:24:56;;;;;;;9.50;6.57;;;18.60;71.30;;;22.05;46.52;102132.06;5055178;28;20214;-64
2023/05/28 07:27:24;;;;;;;10.27;6.70;;;18.70;71.10;;;22.10;46.42;102133.06;5056029;28;20190;-65
2023/05/28 07:29:51;;;;;;;10.13;5.87;;;18.70;70.90;;;22.15;46.37;102125.19;5055192;28;20202;-66
2023/05/28 07:32:18;;;;;;;11.43;6.30;;;18.80;70.90;;;22.25;46.26;102130.88;5054176;28;20208;-65
2023/05/28 07:34:45;;;;;;;10.83;6.53;;;18.90;70.60;;;22.40;46.17;102129.75;5053633;28;20217;-65
2023/05/28 07:37:12;;;;;;;12.27;7.00;;;19.00;70.60;;;22.52;45.60;102130.69;5055629;28;20200;-64
2023/05/28 07:39:39;;;;;;;11.17;6.50;;;19.10;70.20;;;22.62;45.47;102123.81;5055776;28;20610;-67
2023/05/28 07:42:06;;;;;;;7.87;5.30;;;19.20;69.70;;;22.73;45.79;102124.97;5056944;28;20189;-66
2023/05/28 07:44:35;;;;;;;9.90;6.07;;;19.30;69.50;;;22.86;45.15;102125.69;5056600;28;20649;-66
2023/05/28 07:47:02;;;;;;;8.53;5.63;;;19.40;69.10;;;23.01;44.81;102117.25;5054415;28;20277;-66
2023/05/28 07:49:30;;;;;;;10.10;5.30;;;19.50;68.70;;;23.15;44.39;102123.31;5037825;28;20250;-65
2023/05/28 07:51:57;;;;;;;9.20;5.20;;;19.70;68.00;;;23.29;44.13;102130.19;5038746;28;20277;-64
2023/05/28 07:54:24;;;;;;;19.90;6.37;;;19.80;67.90;;;23.44;43.72;102122.56;5039197;28;20219;-64
2023/05/28 07:56:51;;;;;;;8.43;5.00;;;19.90;66.90;;;23.57;43.41;102127.81;5039690;28;20285;-65
2023/05/28 07:59:18;;;;;;;11.90;5.30;;;20.10;67.00;;;23.71;43.13;102123.88;5041889;28;20261;-66
2023/05/28 08:01:46;;;;;;;10.97;5.93;;;20.20;66.30;;;23.78;42.55;102124.63;5048647;28;20194;-64
2023/05/28 08:04:13;;;;;;;12.57;5.53;;;20.40;65.50;;;23.88;42.46;102124.91;5058047;28;20218;-64
2023/05/28 08:06:40;;;;;;;8.87;5.17;;;20.50;65.10;;;24.19;41.93;102130.06;5058856;28;20277;-64
2023/05/28 08:09:07;;;;;;;8.50;5.10;;;20.60;65.00;;;24.93;41.95;102134.03;5060117;28;20190;-64
2023/05/28 08:11:34;;;;;;;10.53;5.37;;;20.80;65.80;;;25.94;39.08;102133.44;5057281;28;20197;-65
2023/05/28 08:14:02;;;;;;;10.60;5.50;;;21.20;65.30;;;27.08;38.42;102132.09;5053622;28;20304;-65
2023/05/28 08:16:29;;;;;;;12.17;6.40;;;21.80;64.30;;;28.22;35.90;102127.50;5053337;28;20276;-64
2023/05/28 08:18:57;;;;;;;11.03;6.63;;;22.40;61.90;;;29.08;33.55;102126.22;5053343;28;20214;-64
2023/05/28 08:21:25;;;;;;;9.27;5.00;;;23.00;58.90;;;29.68;33.48;102126.47;5054286;28;20288;-65
2023/05/28 08:23:53;;;;;;;9.90;6.13;;;23.70;58.90;;;30.32;32.60;102126.03;5053816;28;20189;-64
2023/05/28 08:26:21;;;;;;;13.37;7.03;;;24.30;57.50;;;30.96;30.37;102126.28;5054263;28;20229;-68
2023/05/28 08:28:48;;;;;;;11.13;6.57;;;24.70;54.90;;;31.61;30.02;102128.75;5054295;28;20701;-65
2023/05/28 08:31:15;;;;;;;9.37;5.30;;;25.30;53.50;;;32.44;29.58;102120.53;5053600;28;20225;-65
2023/05/28 08:33:42;;;;;;;7.23;4.87;;;25.90;53.80;;;33.40;28.57;102123.06;5053058;28;20220;-64
2023/05/28 08:36:11;;;;;;;9.30;5.23;;;26.60;52.30;;;34.23;27.08;102112.28;5053501;28;20253;-65
2023/05/28 08:38:37;;;;;;;10.90;6.17;;;27.20;50.70;;;35.12;26.32;102112.81;5053916;28;20200;-66
2023/05/28 08:41:06;;;;;;;9.67;5.00;;;27.80;49.30;;;35.86;25.13;102115.00;5053461;28;20194;-66
2023/05/28 08:43:33;;;;;;;6.17;4.53;;;28.40;47.30;;;36.33;25.44;102110.00;5053463;28;20592;-66
2023/05/28 08:46:01;;;;;;;12.57;6.47;;;28.90;47.00;;;36.77;23.26;102111.88;5034618;28;20265;-64
2023/05/28 08:48:32;;;;;;;11.50;5.23;;;29.40;42.90;;;37.14;23.65;102112.16;5034110;28;20194;-64
2023/05/28 08:51:00;;;;;;;8.63;5.43;;;29.80;42.40;;;37.45;21.93;102112.09;5033475;28;20200;-66
2023/05/28 08:53:40;;;;;;;12.60;6.47;;;30.10;39.60;;;37.48;21.01;102110.63;5033250;28;20289;-66
2023/05/28 08:56:09;;;;;;;10.07;5.87;;;30.40;37.10;;;37.63;21.73;102110.16;5033537;28;20289;-66
2023/05/28 08:58:38;;;;;;;9.60;5.82;;;30.50;37.80;;;38.05;21.13;102109.34;5049967;28;20208;-66
2023/05/28 09:01:09;;;;;;;9.60;5.47;;;30.80;37.10;;;38.35;20.66;102108.31;5053063;28;20198;-66
2023/05/28 09:03:39;;;;;;;10.27;5.55;;;31.10;36.00;;;38.49;20.40;102106.16;5052491;28;20189;-66
2023/05/28 09:06:07;;;;;;;9.75;6.10;;;31.40;35.10;;;38.82;20.21;102113.84;5053069;28;20231;-66
2023/05/28 09:08:36;;;;;;;10.32;6.40;;;31.60;35.00;;;39.08;19.48;102106.25;5053451;28;20194;-65
2023/05/28 09:11:12;;;;;;;8.50;5.65;;;31.80;33.70;;;39.31;19.52;102107.56;5052900;28;20232;-66
2023/05/28 09:13:43;;;;;;;9.32;5.55;;;32.00;33.60;;;39.58;18.79;102096.00;5052661;28;20212;-66
2023/05/28 09:16:11;;;;;;;8.43;5.38;;;32.30;32.10;;;39.62;19.12;102098.94;5051599;28;20297;-65
2023/05/28 09:18:41;;;;;;;10.02;6.15;;;32.50;32.30;;;39.59;18.84;102100.41;5035216;28;20202;-64
2023/05/28 09:21:11;;;;;;;8.60;5.47;;;32.70;31.70;;;39.78;19.03;102097.16;5053515;28;20197;-65
2023/05/28 09:23:39;;;;;;;8.10;5.22;;;33.00;32.40;;;40.21;19.37;102094.78;5052656;28;20190;-65
2023/05/28 09:26:09;;;;;;;9.32;5.53;;;33.10;32.60;;;40.85;18.26;102106.03;5052816;28;20206;-65
2023/05/28 09:28:41;;;;;;;9.35;5.45;;;33.30;32.00;;;41.43;17.19;102106.69;5053132;28;20194;-65
2023/05/28 09:31:11;;;;;;;9.00;5.40;;;33.50;31.00;;;41.73;17.64;102097.72;5053466;28;20188;-64
2023/05/28 09:33:43;;;;;;;8.95;5.68;;;33.80;30.80;;;42.01;17.41;102103.22;5035346;28;20252;-64
2023/05/28 09:36:10;;;;;;;7.38;5.13;;;34.10;30.20;;;42.18;17.16;102102.09;5032874;28;20207;-64
2023/05/28 09:38:41;;;;;;;9.73;6.80;;;34.30;30.30;;;42.43;16.92;102098.84;5033160;28;20233;-64
2023/05/28 09:41:22;;;;;;;10.43;6.40;;;34.50;29.80;;;42.78;16.71;102100.88;5033003;28;20206;-64
2023/05/28 09:43:57;;;;;;;9.95;5.60;;;34.70;29.50;;;43.03;16.76;102099.53;5051328;28;20211;-65
2023/05/28 09:46:29;;;;;;;11.65;6.80;;;34.90;29.60;;;42.69;16.13;102089.19;5052739;28;20196;-65
2023/05/28 09:48:57;;;;;;;7.82;5.63;;;34.70;28.60;;;42.46;16.68;102098.09;5051497;28;20187;-64
2023/05/28 09:51:28;;;;;;;8.07;5.75;;;34.70;29.40;;;42.57;16.50;102092.06;5052532;28;20560;-64
2023/05/28 09:54:00;;;;;;;9.52;6.50;;;34.80;29.20;;;42.35;16.51;102102.59;5052153;28;20214;-66
2023/05/28 09:56:29;;;;;;;10.95;7.07;;;34.80;28.60;;;42.03;16.64;102089.84;5052650;28;20194;-64
2023/05/28 09:58:58;;;;;;;9.02;5.88;;;34.70;29.10;;;41.74;16.86;102087.47;5052358;28;20265;-65
2023/05/28 10:01:31;;;;;;;8.55;6.15;;;34.50;29.10;;;41.68;17.37;102086.06;5052610;28;20194;-65
2023/05/28 10:04:06;;;;;;;8.52;5.75;;;34.40;29.30;;;41.99;17.00;102088.94;5052432;28;20335;-66
2023/05/28 10:06:38;;;;;;;8.82;5.10;;;34.50;29.10;;;42.22;16.88;102087.19;5051917;28;20204;-65
2023/05/28 10:09:11;;;;;;;7.32;5.80;;;34.70;29.20;;;42.57;16.43;102086.50;5052593;28;20178;-65
2023/05/28 10:11:45;;;;;;;14.35;6.68;;;34.90;28.80;;;43.02;16.32;102087.63;5052484;28;20636;-65